createdAt,value
2023-01-18T05:04:36.570Z,2.97
2023-01-18T05:08:48.457Z,3.90
2023-01-18T05:17:39.243Z,3.90
2023-01-18T05:21:50.694Z,5.07
2023-01-18T05:26:04.659Z,4.67
2023-01-18T05:30:16.304Z,3.93
2023-01-18T05:34:28.604Z,3.67
2023-01-18T05:38:40.073Z,4.40
2023-01-18T05:42:51.568Z,3.50
2023-01-18T05:47:03.240Z,3.30
2023-01-18T05:51:14.689Z,3.13
2023-01-18T05:55:27.237Z,3.13
2023-01-18T05:59:38.892Z,3.73
2023-01-18T06:03:50.373Z,4.23
2023-01-18T06:08:02.674Z,3.53
2023-01-18T06:12:14.243Z,3.80
2023-01-18T06:16:25.770Z,4.20
2023-01-18T06:20:37.358Z,3.63
2023-01-18T06:24:48.825Z,3.53
2023-01-18T06:29:00.327Z,3.17
2023-01-18T06:33:11.853Z,3.17
2023-01-18T06:37:23.329Z,3.03
2023-01-18T06:41:34.859Z,3.00
2023-01-18T06:45:52.526Z,2.60
2023-01-18T06:50:04.344Z,3.23
2023-01-18T06:54:16.666Z,3.47
2023-01-18T06:58:30.000Z,3.43
2023-01-18T07:02:41.482Z,3.30
2023-01-18T07:06:53.731Z,3.27
2023-01-18T07:11:07.943Z,2.57
2023-01-18T07:15:22.189Z,3.00
2023-01-18T07:19:34.889Z,2.60
2023-01-18T07:23:46.382Z,2.97
2023-01-18T07:27:57.916Z,2.90
2023-01-18T07:32:09.416Z,3.00
2023-01-18T07:36:22.236Z,3.60
2023-01-18T07:40:34.005Z,3.67
2023-01-18T07:44:45.455Z,3.90
2023-01-18T07:48:58.351Z,4.47
2023-01-18T07:53:09.878Z,5.13
2023-01-18T07:57:21.452Z,5.77
2023-01-18T08:01:33.015Z,4.93
2023-01-18T08:05:45.476Z,3.87
2023-01-18T08:09:58.013Z,4.70
2023-01-18T08:14:09.571Z,4.87
2023-01-18T08:18:21.416Z,5.50
2023-01-18T08:22:32.854Z,5.00
2023-01-18T08:26:44.287Z,4.80
2023-01-18T08:31:12.378Z,6.10
2023-01-18T08:35:25.877Z,6.43
2023-01-18T08:39:38.381Z,5.20
2023-01-18T08:43:50.981Z,4.00
2023-01-18T08:48:09.339Z,4.07
2023-01-18T08:52:20.925Z,3.83
2023-01-18T08:56:32.399Z,3.00
2023-01-18T09:00:45.614Z,3.77
2023-01-18T09:04:58.135Z,4.93
2023-01-18T09:09:11.450Z,5.97
2023-01-18T09:13:22.940Z,10.10
2023-01-18T09:17:34.466Z,6.90
2023-01-18T09:21:46.509Z,5.20
2023-01-18T09:26:10.339Z,4.03
2023-01-18T09:30:21.948Z,4.17
2023-01-18T09:34:34.654Z,4.10
2023-01-18T09:38:46.666Z,3.60
2023-01-18T09:42:58.508Z,3.97
2023-01-18T09:47:22.191Z,4.70
2023-01-18T09:51:49.758Z,4.10
2023-01-18T09:56:18.613Z,4.20
2023-01-18T10:00:33.605Z,3.70
2023-01-18T10:04:49.636Z,3.63
2023-01-18T10:09:07.015Z,3.37
2023-01-18T10:13:50.912Z,3.47
2023-01-18T10:18:02.494Z,2.93
2023-01-18T10:22:46.873Z,2.90
2023-01-18T10:27:10.820Z,2.97
2023-01-18T10:31:48.059Z,3.40
2023-01-18T10:36:16.632Z,3.37
2023-01-18T10:40:28.156Z,3.33
2023-01-18T10:44:40.211Z,3.60
2023-01-18T10:48:54.370Z,3.07
2023-01-18T10:53:27.338Z,3.30
2023-01-18T10:57:52.086Z,2.90
2023-01-18T11:02:05.004Z,2.87
2023-01-18T11:06:19.190Z,3.00
2023-01-18T11:10:38.028Z,3.07
2023-01-18T11:14:49.509Z,3.27
2023-01-18T11:19:15.882Z,2.73
2023-01-18T11:23:36.192Z,2.80
2023-01-18T11:27:49.284Z,3.00
2023-01-18T11:32:03.670Z,2.67
2023-01-18T11:36:15.914Z,2.70
2023-01-18T11:40:29.711Z,4.00
2023-01-18T11:45:04.985Z,2.67
2023-01-18T11:49:28.780Z,3.17
2023-01-18T11:54:11.225Z,3.67
2023-01-18T11:58:26.803Z,6.70
2023-01-18T12:02:57.804Z,15.38
2023-01-18T12:07:18.060Z,4.80
2023-01-18T12:11:46.724Z,14.95
2023-01-18T12:16:28.164Z,8.25
2023-01-18T12:21:07.499Z,6.50
2023-01-18T12:26:12.276Z,7.00
2023-01-18T12:30:51.459Z,4.85
2023-01-18T12:35:30.236Z,2.40
2023-01-18T12:39:56.949Z,2.58
2023-01-18T12:44:29.924Z,4.10
2023-01-18T12:48:41.341Z,3.35
2023-01-18T12:52:58.553Z,3.30
2023-01-18T12:57:11.377Z,2.35
2023-01-18T13:01:27.114Z,2.60
2023-01-18T13:05:54.092Z,2.92
2023-01-18T13:10:13.671Z,2.97
2023-01-18T13:14:33.388Z,3.20
2023-01-18T13:19:03.923Z,3.08
2023-01-18T13:23:39.771Z,3.05
2023-01-18T13:28:02.683Z,3.60
2023-01-18T13:32:29.156Z,3.30
2023-01-18T13:36:45.607Z,2.88
2023-01-18T13:41:03.881Z,2.97
2023-01-18T13:45:26.001Z,2.00
2023-01-18T13:49:46.294Z,1.83
2023-01-18T13:53:57.770Z,2.60
2023-01-18T13:58:27.584Z,2.97
2023-01-18T14:02:42.312Z,2.63
2023-01-18T14:06:57.365Z,2.25
2023-01-18T14:11:20.796Z,2.37
2023-01-18T14:15:53.357Z,2.63
2023-01-18T14:20:34.944Z,2.30
2023-01-18T14:25:23.885Z,3.20
2023-01-18T14:29:46.201Z,2.80
2023-01-18T14:33:57.743Z,2.50
2023-01-18T14:38:18.851Z,3.17
2023-01-18T14:42:34.778Z,3.00
2023-01-18T14:46:55.988Z,2.10
2023-01-18T14:51:07.532Z,2.33
2023-01-18T14:55:30.906Z,2.30
2023-01-18T14:59:54.036Z,1.90
2023-01-18T15:04:26.199Z,2.30
2023-01-18T15:08:39.350Z,1.92
2023-01-18T15:12:56.324Z,1.95
2023-01-18T15:17:11.518Z,2.33
2023-01-18T15:21:28.113Z,2.30
2023-01-18T15:25:40.253Z,2.60
2023-01-18T15:29:54.465Z,2.00
2023-01-18T15:34:13.253Z,2.60
2023-01-18T15:38:25.004Z,6.03
2023-01-18T15:42:55.123Z,2.57
2023-01-18T15:47:15.657Z,2.30
2023-01-18T15:51:45.846Z,2.63
2023-01-18T15:56:03.324Z,2.50
2023-01-18T16:00:30.816Z,2.80
2023-01-18T16:04:42.368Z,2.57
2023-01-18T16:09:16.009Z,2.97
2023-01-18T16:13:37.093Z,2.87
2023-01-18T16:17:48.620Z,4.93
2023-01-18T16:22:06.607Z,5.90
2023-01-18T16:26:23.138Z,3.97
2023-01-18T16:30:38.168Z,3.10
2023-01-18T16:34:49.961Z,3.63
2023-01-18T16:39:05.278Z,3.33
2023-01-18T16:43:29.738Z,4.10
2023-01-18T16:47:41.260Z,7.87
2023-01-18T16:51:52.836Z,5.40
2023-01-18T16:56:04.497Z,6.67
2023-01-18T17:00:25.137Z,14.83
2023-01-18T17:04:36.636Z,12.13
2023-01-18T17:08:49.287Z,7.00
2023-01-18T17:13:01.310Z,5.23
2023-01-18T17:17:13.108Z,3.73
2023-01-18T17:21:24.605Z,3.47
2023-01-18T17:25:36.595Z,3.63
2023-01-18T17:29:48.044Z,19.20
2023-01-18T17:34:00.406Z,11.60
2023-01-18T17:38:22.835Z,8.93
2023-01-18T17:42:35.481Z,7.70
2023-01-18T17:46:47.030Z,7.47
2023-01-18T17:50:58.786Z,6.70
2023-01-18T17:55:13.032Z,7.20
2023-01-18T17:59:24.669Z,7.67
2023-01-18T18:03:41.155Z,6.90
2023-01-18T18:07:52.661Z,6.90
2023-01-18T18:12:05.163Z,6.27
2023-01-18T18:16:18.716Z,7.83
2023-01-18T18:20:31.953Z,6.93
2023-01-18T18:24:43.379Z,8.93
2023-01-18T18:28:54.839Z,11.97
2023-01-18T18:33:06.343Z,13.07
2023-01-18T18:37:19.685Z,15.80
2023-01-18T18:41:31.356Z,14.77
2023-01-18T18:45:44.874Z,13.33
2023-01-18T18:49:56.545Z,25.03
2023-01-18T18:54:10.763Z,20.13
2023-01-18T18:58:22.245Z,19.27
2023-01-18T19:02:34.507Z,17.00
2023-01-18T19:06:46.081Z,17.10
2023-01-18T19:10:57.608Z,12.63
2023-01-18T19:15:09.393Z,12.67
2023-01-18T19:19:21.343Z,9.00
2023-01-18T19:23:33.070Z,6.83
2023-01-18T19:27:44.650Z,6.00
2023-01-18T19:31:56.116Z,5.20
2023-01-18T19:36:13.737Z,6.30
2023-01-18T19:40:50.825Z,6.60
2023-01-18T20:11:15.835Z,6.67
2023-01-18T20:15:27.333Z,7.53
2023-01-18T20:19:38.837Z,8.20
2023-01-18T20:23:50.337Z,6.87
2023-01-18T20:28:01.940Z,5.97
2023-01-18T20:32:16.707Z,7.47
2023-01-18T20:36:29.654Z,8.47
2023-01-18T20:47:11.325Z,11.30
2023-01-18T20:51:22.904Z,11.47
2023-01-18T21:19:46.037Z,7.30
2023-01-18T21:23:57.860Z,7.30
2023-01-18T21:28:09.368Z,8.13
2023-01-18T21:32:22.676Z,6.33
2023-01-18T21:36:34.179Z,6.10
2023-01-18T21:40:45.761Z,6.27
2023-01-18T21:45:15.901Z,10.37
2023-01-18T21:54:18.157Z,10.57
2023-01-18T21:58:48.376Z,12.20
2023-01-18T22:02:59.918Z,11.47
2023-01-18T22:07:11.525Z,8.57
2023-01-18T22:11:23.141Z,7.30
2023-01-18T22:15:34.989Z,7.00
2023-01-18T22:19:46.794Z,7.87
2023-01-18T22:23:58.781Z,6.50
2023-01-18T22:28:10.766Z,6.27
